Time;durP1;ratioP1;P1;durP2;ratioP2;P2;SDS_P1;SDS_P2;PMS_P1;PMS_P2;Temp;Humidity;BMP_temperature;BMP_pressure;BME280_temperature;BME280_humidity;BME280_pressure;Samples;Min_cycle;Max_cycle;Signal;HPM_P1;HPM_P2
2021/07/02 00:00:44;;;;;;;6.00;4.20;;;17.00;99.90;;;;;;5072993;28;20212;-61
2021/07/02 00:03:10;;;;;;;5.97;3.73;;;16.90;99.90;;;;;;5072770;28;20201;-61
2021/07/02 00:05:39;;;;;;;5.67;3.77;;;16.90;99.90;;;;;;5072614;28;20212;-61
2021/07/02 00:08:06;;;;;;;7.57;3.67;;;17.30;99.90;;;;;;5072242;28;20256;-61
2021/07/02 00:10:32;;;;;;;5.90;3.80;;;16.90;99.90;;;;;;5072766;28;20507;-60
2021/07/02 00:12:59;;;;;;;4.43;3.80;;;16.80;99.90;;;;;;5072555;28;20216;-60
2021/07/02 00:15:26;;;;;;;7.10;3.90;;;16.80;99.90;;;;;;5072274;28;20232;-60
2021/07/02 00:17:53;;;;;;;5.73;4.00;;;16.80;99.90;;;;;;5072503;28;20225;-61
2021/07/02 00:20:19;;;;;;;7.90;4.10;;;16.70;99.90;;;;;;5072681;28;20211;-60
2021/07/02 00:22:47;;;;;;;4.40;3.90;;;16.70;99.90;;;;;;5072492;28;20209;-61
2021/07/02 00:25:14;;;;;;;5.03;3.70;;;16.70;99.90;;;;;;5072304;28;20197;-61
2021/07/02 00:27:41;;;;;;;5.57;4.07;;;16.70;99.90;;;;;;5072595;28;20221;-61
2021/07/02 00:30:08;;;;;;;9.30;3.93;;;16.60;99.90;;;;;;5072186;28;20699;-61
2021/07/02 00:32:35;;;;;;;5.10;4.00;;;16.60;99.90;;;;;;5072230;28;20212;-62
2021/07/02 00:35:01;;;;;;;7.30;4.30;;;16.50;99.90;;;;;;5071799;28;20228;-61
2021/07/02 00:37:28;;;;;;;5.33;4.23;;;16.50;99.90;;;;;;5071785;28;20716;-61
2021/07/02 00:39:56;;;;;;;6.77;4.90;;;16.50;99.90;;;;;;5071702;28;20226;-61
2021/07/02 00:42:23;;;;;;;5.50;4.60;;;16.50;99.90;;;;;;5072007;28;20201;-61
2021/07/02 00:44:50;;;;;;;4.00;3.40;;;16.40;99.90;;;;;;5071622;28;20204;-61
2021/07/02 00:47:18;;;;;;;4.77;3.83;;;16.40;99.90;;;;;;5071892;28;20229;-61
2021/07/02 00:49:45;;;;;;;6.17;3.57;;;16.40;99.90;;;;;;5071803;28;20204;-61
2021/07/02 00:52:14;;;;;;;8.90;4.07;;;16.30;99.90;;;;;;5071656;28;20209;-61
2021/07/02 00:54:42;;;;;;;6.73;3.83;;;16.40;99.90;;;;;;5071867;28;20257;-61
2021/07/02 00:57:11;;;;;;;5.40;3.93;;;16.40;99.90;;;;;;5072002;28;20232;-61
2021/07/02 00:59:41;;;;;;;5.20;3.50;;;16.40;99.90;;;;;;5071662;28;20212;-61
2021/07/02 01:02:08;;;;;;;6.80;4.13;;;16.40;99.90;;;;;;5071561;28;20205;-61
2021/07/02 01:04:35;;;;;;;7.03;3.70;;;16.40;99.90;;;;;;5071453;28;20575;-61
2021/07/02 01:07:03;;;;;;;3.80;3.40;;;16.40;99.90;;;;;;5071385;28;20233;-61
2021/07/02 01:09:30;;;;;;;8.30;3.90;;;16.40;99.90;;;;;;5071277;28;20231;-62
2021/07/02 01:11:58;;;;;;;6.67;3.77;;;16.40;99.90;;;;;;5071306;28;20213;-61
2021/07/02 01:14:26;;;;;;;5.53;4.30;;;16.40;99.90;;;;;;5071104;28;20228;-61
2021/07/02 01:16:53;;;;;;;5.93;4.00;;;16.30;99.90;;;;;;5071151;28;20228;-61
2021/07/02 01:19:19;;;;;;;11.13;3.90;;;16.30;99.90;;;;;;5071038;28;20216;-61
2021/07/02 01:21:47;;;;;;;4.13;3.73;;;16.50;99.90;;;;;;5071520;28;20209;-61
2021/07/02 01:24:14;;;;;;;6.43;3.63;;;16.40;99.90;;;;;;5071312;28;20203;-61
2021/07/02 01:26:42;;;;;;;5.43;3.43;;;16.30;99.90;;;;;;5071514;28;20315;-61
2021/07/02 01:29:10;;;;;;;6.43;3.73;;;16.30;99.90;;;;;;5071376;28;20201;-62
2021/07/02 01:31:36;;;;;;;5.60;3.80;;;16.20;99.90;;;;;;5071418;28;20213;-61
2021/07/02 01:34:03;;;;;;;5.27;3.60;;;16.20;99.90;;;;;;5072258;28;20232;-60
2021/07/02 01:36:30;;;;;;;6.33;4.13;;;16.20;99.90;;;;;;5071855;28;20232;-59
2021/07/02 01:38:58;;;;;;;5.93;3.60;;;16.00;99.90;;;;;;5071622;28;20217;-60
2021/07/02 01:41:24;;;;;;;4.67;3.50;;;15.80;99.90;;;;;;5071501;28;20219;-60
2021/07/02 01:43:51;;;;;;;6.13;3.90;;;15.70;99.90;;;;;;5071326;28;20212;-60
2021/07/02 01:46:18;;;;;;;6.77;3.83;;;15.60;99.90;;;;;;5070775;28;20205;-60
2021/07/02 01:48:45;;;;;;;4.87;3.80;;;15.60;99.90;;;;;;5070684;28;20668;-60
2021/07/02 01:51:12;;;;;;;7.53;4.03;;;15.60;99.90;;;;;;5070989;28;20205;-60
2021/07/02 01:53:39;;;;;;;5.27;4.17;;;15.60;99.90;;;;;;5071050;28;20205;-60
2021/07/02 01:56:07;;;;;;;6.00;4.57;;;15.60;99.90;;;;;;5070840;28;20205;-60
2021/07/02 01:58:34;;;;;;;7.13;4.23;;;15.60;99.90;;;;;;5070731;28;20215;-60
2021/07/02 02:01:01;;;;;;;5.80;4.60;;;15.60;99.90;;;;;;5070576;28;20240;-60
2021/07/02 02:03:27;;;;;;;4.67;3.80;;;15.60;99.90;;;;;;5070694;28;20235;-61
2021/07/02 02:05:54;;;;;;;5.90;3.97;;;15.50;99.90;;;;;;5070573;28;20201;-60
2021/07/02 02:08:21;;;;;;;7.07;4.10;;;15.50;99.90;;;;;;5070831;28;20239;-60
2021/07/02 02:10:48;;;;;;;8.50;3.90;;;15.50;99.90;;;;;;5070879;28;20287;-60
2021/07/02 02:13:16;;;;;;;5.43;4.10;;;15.50;99.90;;;;;;5070607;28;20212;-60
2021/07/02 02:15:42;;;;;;;8.03;3.63;;;15.50;99.90;;;;;;5070356;28;20228;-60
2021/07/02 02:18:09;;;;;;;6.20;4.07;;;15.50;99.90;;;;;;5070720;28;20225;-60
2021/07/02 02:20:36;;;;;;;6.77;4.17;;;15.50;99.90;;;;;;5071125;28;20208;-60
2021/07/02 02:23:03;;;;;;;6.87;4.20;;;15.40;99.90;;;;;;5070723;28;20209;-61
2021/07/02 02:25:30;;;;;;;8.03;4.40;;;15.40;99.90;;;;;;5070436;28;20197;-60
2021/07/02 02:27:56;;;;;;;6.47;4.20;;;15.30;99.90;;;;;;5070429;28;20225;-60
2021/07/02 02:30:25;;;;;;;9.17;4.30;;;15.30;99.90;;;;;;5070491;28;20630;-61
2021/07/02 02:32:52;;;;;;;6.50;4.17;;;15.20;99.90;;;;;;5070786;28;20659;-60
2021/07/02 02:35:18;;;;;;;4.60;4.10;;;15.10;99.90;;;;;;5070422;28;20684;-60
2021/07/02 02:37:45;;;;;;;6.77;4.30;;;15.10;99.90;;;;;;5070524;28;20500;-60
2021/07/02 02:40:13;;;;;;;6.90;4.33;;;15.00;99.90;;;;;;5070783;28;20209;-60
2021/07/02 02:42:40;;;;;;;7.77;4.20;;;14.90;99.90;;;;;;5070458;28;20503;-60
2021/07/02 02:45:08;;;;;;;5.20;4.00;;;14.90;99.90;;;;;;5070649;28;20201;-60
2021/07/02 02:47:36;;;;;;;8.60;4.23;;;14.90;99.90;;;;;;5070711;28;20228;-60
2021/07/02 02:50:03;;;;;;;9.03;4.40;;;14.80;99.90;;;;;;5070588;28;20209;-60
2021/07/02 02:52:30;;;;;;;8.47;5.17;;;14.80;99.90;;;;;;5071046;28;20232;-59
2021/07/02 02:54:57;;;;;;;8.00;4.23;;;14.80;99.90;;;;;;5070270;28;20225;-60
2021/07/02 02:57:24;;;;;;;5.87;4.13;;;14.70;99.90;;;;;;5072321;28;20241;-60
2021/07/02 02:59:50;;;;;;;6.27;4.53;;;14.60;99.90;;;;;;5074061;28;20213;-60
2021/07/02 03:02:17;;;;;;;8.27;4.43;;;14.50;99.90;;;;;;5074425;28;20216;-60
2021/07/02 03:04:45;;;;;;;6.63;4.57;;;14.40;99.90;;;;;;5074150;28;20197;-60
2021/07/02 03:07:12;;;;;;;4.67;4.07;;;14.40;99.90;;;;;;5073918;28;20252;-60
2021/07/02 03:09:39;;;;;;;5.30;4.30;;;14.30;99.90;;;;;;5073613;28;20219;-61
2021/07/02 03:12:06;;;;;;;11.77;4.23;;;14.30;99.90;;;;;;5073818;28;20209;-60
2021/07/02 03:14:33;;;;;;;8.40;5.17;;;14.30;99.90;;;;;;5073898;28;20239;-60
2021/07/02 03:16:59;;;;;;;7.80;4.73;;;14.20;99.90;;;;;;5073592;28;20275;-60
2021/07/02 03:19:26;;;;;;;8.90;4.47;;;14.20;99.90;;;;;;5073413;28;20228;-60
2021/07/02 03:21:54;;;;;;;5.60;4.43;;;14.20;99.90;;;;;;5073379;28;20212;-60
2021/07/02 03:24:21;;;;;;;8.47;4.53;;;14.20;99.90;;;;;;5073122;28;20228;-60
2021/07/02 03:26:48;;;;;;;6.53;4.80;;;14.10;99.90;;;;;;5073638;28;20318;-60
2021/07/02 03:29:15;;;;;;;5.60;4.27;;;14.10;99.90;;;;;;5073433;28;20201;-60
2021/07/02 03:31:41;;;;;;;7.53;4.70;;;14.00;99.90;;;;;;5073468;28;20580;-61
2021/07/02 03:34:08;;;;;;;9.97;5.00;;;14.00;99.90;;;;;;5072987;28;20688;-61
2021/07/02 03:36:35;;;;;;;9.77;5.23;;;14.60;99.90;;;;;;5073033;28;20232;-61
2021/07/02 03:39:04;;;;;;;6.93;4.70;;;13.90;99.90;;;;;;5073062;28;20240;-60
2021/07/02 03:41:31;;;;;;;8.10;5.10;;;13.80;99.90;;;;;;5073094;28;20201;-61
2021/07/02 03:43:58;;;;;;;6.97;5.10;;;13.80;99.90;;;;;;5073207;28;20212;-62
2021/07/02 03:46:25;;;;;;;6.47;4.63;;;13.80;99.90;;;;;;5073360;28;20200;-60
2021/07/02 03:48:51;;;;;;;6.43;4.40;;;13.80;99.90;;;;;;5073171;28;20209;-60
2021/07/02 03:51:18;;;;;;;8.30;4.90;;;13.70;99.90;;;;;;5073313;28;20292;-61
2021/07/02 03:53:45;;;;;;;6.97;4.70;;;13.80;99.90;;;;;;5073145;28;20668;-61
2021/07/02 03:56:13;;;;;;;6.77;4.80;;;13.70;99.90;;;;;;5072959;28;20704;-61
2021/07/02 03:58:39;;;;;;;8.80;5.43;;;13.70;99.90;;;;;;5072716;28;20208;-60
2021/07/02 04:01:06;;;;;;;7.90;5.23;;;13.70;99.90;;;;;;5072744;28;20212;-62
2021/07/02 04:03:33;;;;;;;8.00;4.73;;;13.80;99.90;;;;;;5072604;28;20668;-61
2021/07/02 04:06:00;;;;;;;8.97;4.97;;;13.80;99.90;;;;;;5072617;28;20209;-61
2021/07/02 04:08:27;;;;;;;8.73;5.50;;;13.80;99.90;;;;;;5071988;28;20240;-61
2021/07/02 04:10:54;;;;;;;7.27;4.67;;;13.90;99.90;;;;;;5072759;28;20208;-60
2021/07/02 04:13:22;;;;;;;8.43;5.17;;;14.00;99.90;;;;;;5072485;28;20618;-61
2021/07/02 04:15:52;;;;;;;9.53;4.93;;;14.00;99.90;;;;;;5072538;28;20546;-61
2021/07/02 04:18:19;;;;;;;8.53;5.00;;;14.20;99.90;;;;;;5072501;28;20228;-60
2021/07/02 04:20:46;;;;;;;9.00;5.60;;;14.30;99.90;;;;;;5072346;28;20208;-61
2021/07/02 04:23:12;;;;;;;9.63;5.50;;;14.40;99.90;;;;;;5072508;28;20211;-61
2021/07/02 04:25:39;;;;;;;7.20;5.47;;;14.40;99.90;;;;;;5072313;28;20208;-61
2021/07/02 04:28:06;;;;;;;7.37;5.10;;;14.50;99.90;;;;;;5072207;28;20697;-60
2021/07/02 04:30:34;;;;;;;8.13;5.20;;;14.60;99.90;;;;;;5072180;28;20201;-61
2021/07/02 04:33:01;;;;;;;9.90;5.03;;;14.60;99.90;;;;;;5072063;28;20220;-61
2021/07/02 04:35:28;;;;;;;5.70;4.80;;;14.70;99.90;;;;;;5072068;28;20240;-61
2021/07/02 04:37:54;;;;;;;10.43;4.73;;;14.80;99.90;;;;;;5071771;28;20225;-61
2021/07/02 04:40:21;;;;;;;6.30;4.43;;;15.10;99.90;;;;;;5072052;28;20205;-61
2021/07/02 04:42:48;;;;;;;7.77;4.50;;;15.30;99.90;;;;;;5071858;28;20243;-61
2021/07/02 04:45:15;;;;;;;8.37;4.83;;;15.60;99.90;;;;;;5071736;28;20208;-61
2021/07/02 04:47:43;;;;;;;6.07;4.30;;;15.90;99.90;;;;;;5071659;28;20220;-60
2021/07/02 04:50:11;;;;;;;5.50;4.40;;;16.20;99.90;;;;;;5071879;28;20211;-62
2021/07/02 04:52:38;;;;;;;7.77;4.37;;;16.60;99.90;;;;;;5071801;28;20629;-62
2021/07/02 04:55:05;;;;;;;7.03;4.20;;;16.80;99.90;;;;;;5071400;28;20278;-61
2021/07/02 04:57:32;;;;;;;7.77;4.00;;;17.00;99.90;;;;;;5072046;28;20236;-62
2021/07/02 05:00:01;;;;;;;5.97;3.90;;;17.10;99.90;;;;;;5071567;28;20691;-62
2021/07/02 05:02:28;;;;;;;5.50;4.10;;;17.30;99.90;;;;;;5071788;28;20488;-62
2021/07/02 05:04:56;;;;;;;12.47;7.70;;;17.60;99.90;;;;;;5071516;28;20623;-62
2021/07/02 05:07:23;;;;;;;5.33;4.00;;;17.90;99.90;;;;;;5071549;28;20233;-61
2021/07/02 05:09:51;;;;;;;7.67;4.07;;;18.40;99.90;;;;;;5071257;28;20204;-61
2021/07/02 05:12:17;;;;;;;8.35;3.83;;;19.10;99.90;;;;;;5071127;28;20217;-62
2021/07/02 05:14:44;;;;;;;4.65;4.10;;;20.00;99.90;;;;;;5071012;28;20204;-62
2021/07/02 05:17:11;;;;;;;5.55;3.47;;;21.40;99.90;;;;;;5071435;28;20229;-63
2021/07/02 05:19:40;;;;;;;4.55;4.00;;;22.20;99.90;;;;;;5070751;28;20211;-62
2021/07/02 05:22:13;;;;;;;5.10;4.07;;;22.30;99.90;;;;;;5071115;28;20209;-62
2021/07/02 05:24:40;;;;;;;4.55;4.13;;;22.00;99.90;;;;;;5071339;28;20243;-62
2021/07/02 05:27:06;;;;;;;9.88;5.22;;;21.60;99.90;;;;;;5071171;28;20225;-62
2021/07/02 05:29:33;;;;;;;16.05;11.02;;;21.30;99.90;;;;;;5072320;28;20212;-61
2021/07/02 05:32:00;;;;;;;7.18;5.07;;;21.20;99.90;;;;;;5071408;28;20208;-62
2021/07/02 05:34:26;;;;;;;6.22;4.53;;;21.10;99.90;;;;;;5070967;28;20220;-62
2021/07/02 05:36:53;;;;;;;8.85;6.25;;;21.10;99.90;;;;;;5070694;28;20232;-62
2021/07/02 05:39:21;;;;;;;20.85;15.40;;;21.00;99.90;;;;;;5070977;28;20209;-62
2021/07/02 05:41:48;;;;;;;8.43;6.10;;;20.80;99.90;;;;;;5070875;28;20584;-62
2021/07/02 05:44:15;;;;;;;9.35;5.40;;;20.80;99.90;;;;;;5071033;28;20216;-61
2021/07/02 05:46:41;;;;;;;9.25;5.30;;;20.80;99.90;;;;;;5070568;28;20225;-61
2021/07/02 05:49:08;;;;;;;7.78;4.90;;;20.80;99.90;;;;;;5070592;28;20215;-61
2021/07/02 05:51:35;;;;;;;8.63;4.82;;;20.80;99.90;;;;;;5071033;28;20204;-61
2021/07/02 05:54:02;;;;;;;7.78;5.15;;;20.80;99.90;;;;;;5070888;28;20212;-61
2021/07/02 05:56:30;;;;;;;9.30;5.65;;;20.90;99.90;;;;;;5070494;28;20239;-62
2021/07/02 05:58:57;;;;;;;7.57;5.30;;;21.00;99.90;;;;;;5070874;28;20303;-62
2021/07/02 06:01:24;;;;;;;6.68;5.28;;;21.10;99.90;;;;;;5071023;28;20209;-62
2021/07/02 06:03:51;;;;;;;6.65;4.80;;;21.20;99.90;;;;;;5070631;28;20236;-62
2021/07/02 06:06:18;;;;;;;6.63;4.57;;;21.30;99.90;;;;;;5070361;28;20699;-62
2021/07/02 06:08:45;;;;;;;6.82;4.70;;;21.40;99.90;;;;;;5070436;28;20209;-62
2021/07/02 06:11:13;;;;;;;9.25;4.60;;;21.50;99.90;;;;;;5070776;28;20215;-62
2021/07/02 06:13:41;;;;;;;8.07;4.75;;;21.50;99.90;;;;;;5070619;28;20208;-61
2021/07/02 06:16:08;;;;;;;6.95;4.45;;;21.50;99.90;;;;;;5070713;28;20289;-62
2021/07/02 06:18:34;;;;;;;5.22;4.63;;;21.60;99.90;;;;;;5070615;28;20204;-62
2021/07/02 06:21:01;;;;;;;9.05;5.68;;;21.60;99.90;;;;;;5070619;28;20379;-61
2021/07/02 06:23:33;;;;;;;8.05;5.00;;;21.70;99.90;;;;;;5070161;28;20209;-61
2021/07/02 06:26:01;;;;;;;7.03;5.20;;;21.90;99.90;;;;;;5070671;28;20205;-61
2021/07/02 06:28:28;;;;;;;7.03;5.15;;;22.10;99.90;;;;;;5070416;28;20319;-61
2021/07/02 06:30:57;;;;;;;5.63;4.45;;;22.70;99.90;;;;;;5070744;28;20213;-61
2021/07/02 06:33:24;;;;;;;6.80;5.18;;;23.50;99.90;;;;;;5074135;28;20664;-61
2021/07/02 06:35:51;;;;;;;6.97;5.05;;;23.90;99.90;;;;;;5074667;28;20228;-62
2021/07/02 06:38:19;;;;;;;5.88;4.53;;;24.10;99.90;;;;;;5074043;28;20225;-62
2021/07/02 06:40:46;;;;;;;6.72;4.55;;;24.30;99.90;;;;;;5075129;28;20204;-61
2021/07/02 06:43:13;;;;;;;5.72;4.60;;;24.50;99.90;;;;;;5074440;28;20205;-61
2021/07/02 06:45:39;;;;;;;7.60;4.65;;;24.80;99.90;;;;;;5074631;28;20250;-61
2021/07/02 06:48:09;;;;;;;6.80;4.75;;;25.80;99.90;;;;;;5073819;28;20229;-67
2021/07/02 06:50:37;;;;;;;10.77;4.60;;;27.10;99.90;;;;;;5073802;28;20591;-61
2021/07/02 06:53:06;;;;;;;7.82;4.30;;;29.00;97.00;;;;;;5073956;28;20212;-61
2021/07/02 06:55:34;;;;;;;49.42;41.67;;;31.20;90.50;;;;;;5073902;28;20292;-60
2021/07/02 06:58:03;;;;;;;6.50;5.18;;;33.20;79.30;;;;;;5073651;28;20666;-60
2021/07/02 07:00:29;;;;;;;7.03;4.50;;;34.80;68.70;;;;;;5073707;28;20208;-60
2021/07/02 07:02:56;;;;;;;5.65;4.00;;;36.10;59.80;;;;;;5073601;28;20296;-60
2021/07/02 07:05:24;;;;;;;7.72;4.00;;;37.10;54.50;;;;;;5073766;28;20216;-60
2021/07/02 07:07:51;;;;;;;6.90;4.50;;;37.80;53.10;;;;;;5073512;28;20233;-61
2021/07/02 07:10:18;;;;;;;5.78;4.15;;;38.80;50.10;;;;;;5073784;28;20215;-60
2021/07/02 07:12:45;;;;;;;4.72;3.70;;;39.40;47.80;;;;;;5073837;28;20205;-61
2021/07/02 07:15:13;;;;;;;10.27;3.95;;;39.90;46.10;;;;;;5073542;28;20228;-61
2021/07/02 07:17:40;;;;;;;4.90;3.50;;;40.30;45.00;;;;;;5073257;28;20302;-64
2021/07/02 07:20:07;;;;;;;7.15;4.00;;;40.30;44.40;;;;;;5073631;28;20211;-65
2021/07/02 07:22:35;;;;;;;4.55;3.97;;;40.50;44.00;;;;;;5073667;28;20209;-62
2021/07/02 07:25:02;;;;;;;4.60;3.78;;;40.90;43.60;;;;;;5073531;28;20664;-63
2021/07/02 07:27:29;;;;;;;4.07;3.65;;;40.90;41.70;;;;;;5073483;28;20221;-61
2021/07/02 07:29:55;;;;;;;3.92;3.50;;;40.50;42.20;;;;;;5073475;28;20209;-62
2021/07/02 07:32:22;;;;;;;5.75;3.38;;;40.10;43.00;;;;;;5073648;28;20212;-64
2021/07/02 07:34:52;;;;;;;5.60;5.00;;;40.40;42.00;;;;;;5073297;28;20212;-63
2021/07/02 07:37:20;;;;;;;4.72;3.95;;;40.80;41.90;;;;;;5074316;28;20259;-63
2021/07/02 07:39:49;;;;;;;5.35;3.47;;;40.90;41.40;;;;;;5074729;28;20274;-62
2021/07/02 07:42:16;;;;;;;19.35;5.10;;;41.10;40.50;;;;;;5074862;28;20205;-67
2021/07/02 07:44:43;;;;;;;36.38;6.65;;;41.40;39.80;;;;;;5073956;28;20209;-70
2021/07/02 07:47:10;;;;;;;68.93;11.32;;;40.20;40.60;;;;;;5073643;28;20228;-67
2021/07/02 07:49:37;;;;;;;52.65;8.95;;;39.00;41.60;;;;;;5074049;28;20709;-67
2021/07/02 07:52:13;;;;;;;29.08;6.65;;;37.10;43.60;;;;;;5073350;28;20208;-66
2021/07/02 07:54:42;;;;;;;14.75;4.85;;;35.40;46.50;;;;;;5072994;28;20703;-66
2021/07/02 07:57:10;;;;;;;4.78;3.92;;;32.20;51.30;;;;;;5073457;28;20233;-66
2021/07/02 07:59:37;;;;;;;6.45;4.43;;;30.10;55.20;;;;;;5074050;28;20208;-66
2021/07/02 08:02:04;;;;;;;5.93;3.67;;;29.00;58.20;;;;;;5073608;28;20204;-65
2021/07/02 08:04:31;;;;;;;7.13;4.07;;;28.40;59.30;;;;;;5073773;28;20208;-65
2021/07/02 08:06:57;;;;;;;11.77;3.95;;;27.80;59.80;;;;;;5073474;28;20237;-66
2021/07/02 08:09:24;;;;;;;14.32;4.93;;;27.40;60.90;;;;;;5072714;28;20208;-66
2021/07/02 08:11:51;;;;;;;4.65;3.53;;;27.50;61.30;;;;;;5072416;28;20262;-65
2021/07/02 08:14:20;;;;;;;3.72;3.33;;;28.20;59.80;;;;;;5072860;28;20535;-66
2021/07/02 08:16:46;;;;;;;5.00;3.50;;;29.80;57.60;;;;;;5072425;28;20233;-65
2021/07/02 08:19:13;;;;;;;5.38;3.47;;;30.90;54.00;;;;;;5072350;28;20204;-66
2021/07/02 08:21:40;;;;;;;5.93;3.40;;;30.80;52.90;;;;;;5072438;28;20211;-63
2021/07/02 08:24:06;;;;;;;9.75;3.85;;;30.70;53.10;;;;;;5072044;28;20201;-59
2021/07/02 08:26:33;;;;;;;4.00;3.30;;;30.90;53.40;;;;;;5072034;28;20232;-59
2021/07/02 08:31:45;;;;;;;5.38;3.92;;;31.60;50.90;;;;;;5072336;28;20204;-59
2021/07/02 08:34:12;;;;;;;6.75;4.40;;;31.90;49.70;;;;;;5072091;28;20201;-59
2021/07/02 08:36:38;;;;;;;7.00;3.67;;;32.90;49.20;;;;;;5071740;28;20680;-59
2021/07/02 08:39:05;;;;;;;7.50;3.97;;;34.10;46.50;;;;;;5072005;28;20556;-59
2021/07/02 08:41:32;;;;;;;4.35;3.25;;;34.80;45.90;;;;;;5072089;28;20231;-60
2021/07/02 08:43:59;;;;;;;3.35;3.05;;;34.50;45.40;;;;;;5071720;28;20219;-59
2021/07/02 08:46:27;;;;;;;4.93;3.50;;;34.20;46.10;;;;;;5071924;28;20227;-60
2021/07/02 08:48:55;;;;;;;5.25;3.72;;;33.80;46.90;;;;;;5071624;28;20661;-60
2021/07/02 08:51:25;;;;;;;4.35;3.90;;;33.00;48.00;;;;;;5071511;28;20258;-60
2021/07/02 08:53:53;;;;;;;8.88;3.50;;;32.40;48.20;;;;;;5071721;28;20233;-59
2021/07/02 08:56:20;;;;;;;7.63;3.92;;;31.90;48.80;;;;;;5071373;28;20232;-59
2021/07/02 08:58:47;;;;;;;6.43;5.00;;;31.70;49.80;;;;;;5071361;28;20209;-59
2021/07/02 09:01:35;;;;;;;5.35;3.90;;;31.50;49.40;;;;;;5071773;28;20204;-60
2021/07/02 09:04:17;;;;;;;7.53;3.83;;;31.10;49.80;;;;;;5071000;28;20424;-59
2021/07/02 09:06:44;;;;;;;5.15;3.85;;;30.70;50.30;;;;;;5071260;28;20332;-59
2021/07/02 09:09:11;;;;;;;6.50;3.72;;;30.40;50.80;;;;;;5071477;28;20219;-60
2021/07/02 09:11:38;;;;;;;5.55;3.42;;;30.20;51.50;;;;;;5071282;28;20673;-63
2021/07/02 09:14:06;;;;;;;3.72;3.40;;;29.70;52.00;;;;;;5071592;28;20205;-60
2021/07/02 09:16:36;;;;;;;6.55;4.22;;;28.70;53.40;;;;;;5071141;28;20258;-59
2021/07/02 09:19:24;;;;;;;4.35;3.40;;;28.20;53.80;;;;;;5071266;28;20237;-59
2021/07/02 09:21:51;;;;;;;5.22;4.07;;;27.80;54.00;;;;;;5071396;28;20209;-59
2021/07/02 09:24:37;;;;;;;4.70;3.30;;;27.70;54.60;;;;;;5071378;28;20209;-59
2021/07/02 09:27:23;;;;;;;4.47;3.70;;;27.80;55.50;;;;;;5071491;28;20704;-59
2021/07/02 09:30:02;;;;;;;4.55;3.50;;;28.00;55.80;;;;;;5071021;28;20236;-59
2021/07/02 09:32:30;;;;;;;6.30;3.88;;;28.20;56.70;;;;;;5071227;28;20205;-59
2021/07/02 09:35:00;;;;;;;5.32;3.92;;;28.10;57.20;;;;;;5070864;28;20292;-59
2021/07/02 09:37:29;;;;;;;5.93;3.90;;;28.10;57.70;;;;;;5070896;28;20232;-59
2021/07/02 09:39:55;;;;;;;5.68;3.78;;;28.00;56.50;;;;;;5070852;28;20209;-59
2021/07/02 09:42:24;;;;;;;5.38;4.03;;;27.60;57.80;;;;;;5071209;28;20484;-59
2021/07/02 09:45:04;;;;;;;5.50;4.88;;;27.20;58.50;;;;;;5070530;28;20258;-59
2021/07/02 09:47:31;;;;;;;5.35;4.00;;;26.80;59.60;;;;;;5070047;28;20766;-59
2021/07/02 09:52:53;;;;;;;4.53;3.92;;;26.40;60.40;;;;;;5088783;28;20534;-60
2021/07/02 09:55:21;;;;;;;6.22;4.28;;;26.00;60.60;;;;;;5088260;28;20204;-60
2021/07/02 09:57:48;;;;;;;6.60;4.15;;;25.90;61.30;;;;;;5088149;28;20223;-60
2021/07/02 10:00:16;;;;;;;5.18;4.00;;;25.80;61.70;;;;;;5088013;28;20215;-60
2021/07/02 10:02:54;;;;;;;4.82;4.18;;;25.90;62.00;;;;;;5088625;28;20208;-60
2021/07/02 10:05:21;;;;;;;7.80;4.43;;;25.90;60.80;;;;;;5088768;28;20583;-60
2021/07/02 10:08:01;;;;;;;5.70;4.30;;;25.80;59.90;;;;;;5088556;28;20231;-59
2021/07/02 10:10:29;;;;;;;7.03;4.30;;;26.00;62.20;;;;;;5088444;28;20565;-59
2021/07/02 10:12:57;;;;;;;5.15;4.40;;;25.70;61.40;;;;;;5087924;28;20691;-59
2021/07/02 10:15:25;;;;;;;5.55;4.28;;;25.50;61.50;;;;;;5088125;28;20310;-60
2021/07/02 10:17:57;;;;;;;7.60;4.50;;;25.30;62.90;;;;;;5087668;28;20228;-59
2021/07/02 10:20:26;;;;;;;5.15;4.00;;;25.00;62.20;;;;;;5088219;28;20234;-59
2021/07/02 10:22:56;;;;;;;5.68;4.05;;;25.10;62.30;;;;;;5087748;28;20392;-59
2021/07/02 10:25:26;;;;;;;7.85;3.72;;;25.10;59.70;;;;;;5087681;28;20594;-59
2021/07/02 10:27:53;;;;;;;4.10;3.70;;;25.00;59.40;;;;;;5087573;28;20752;-60
2021/07/02 10:30:20;;;;;;;5.43;4.03;;;24.80;59.50;;;;;;5087441;28;20216;-60
2021/07/02 10:32:49;;;;;;;5.28;3.75;;;24.70;60.70;;;;;;5088122;28;20224;-61
2021/07/02 10:35:17;;;;;;;4.65;3.95;;;24.50;59.70;;;;;;5087128;28;20208;-60
2021/07/02 10:37:48;;;;;;;4.25;3.35;;;24.50;60.50;;;;;;5086942;28;20315;-59
2021/07/02 10:40:38;;;;;;;5.88;4.05;;;24.50;58.20;;;;;;5087449;28;20307;-59
2021/07/02 10:43:14;;;;;;;4.70;3.70;;;24.50;59.20;;;;;;5087128;28;20664;-60
2021/07/02 10:46:17;;;;;;;4.60;4.03;;;24.30;60.10;;;;;;5086563;28;20651;-60
2021/07/02 10:48:59;;;;;;;5.68;4.47;;;24.20;61.60;;;;;;5087477;28;20212;-59
2021/07/02 10:51:42;;;;;;;5.43;4.20;;;24.20;63.90;;;;;;5086924;28;20285;-59
2021/07/02 10:54:30;;;;;;;5.60;4.30;;;24.30;64.30;;;;;;5085043;28;20230;-60
2021/07/02 10:57:12;;;;;;;5.45;4.22;;;24.20;64.50;;;;;;5086952;28;20262;-60
2021/07/02 11:00:15;;;;;;;7.32;4.57;;;24.30;64.50;;;;;;5086939;28;20208;-60
2021/07/02 11:02:43;;;;;;;5.50;4.03;;;24.40;63.90;;;;;;5081995;28;20227;-60
2021/07/02 11:05:27;;;;;;;5.68;4.22;;;24.50;63.30;;;;;;5073574;28;20220;-60
2021/07/02 11:07:54;;;;;;;4.93;4.13;;;24.60;62.60;;;;;;5072257;28;20228;-60
2021/07/02 11:10:22;;;;;;;9.05;4.88;;;24.70;62.20;;;;;;5073429;28;20212;-60
2021/07/02 11:13:01;;;;;;;4.53;4.03;;;24.60;63.90;;;;;;5073471;28;20232;-60
2021/07/02 11:15:28;;;;;;;5.75;3.70;;;24.70;59.70;;;;;;5073003;28;20568;-60
2021/07/02 11:18:19;;;;;;;5.88;4.20;;;24.60;58.60;;;;;;5073085;28;20315;-60
2021/07/02 11:20:47;;;;;;;4.10;3.70;;;24.60;59.50;;;;;;5073146;28;20605;-61
2021/07/02 11:23:24;;;;;;;4.93;4.13;;;24.60;59.00;;;;;;5073254;28;20209;-60
2021/07/02 11:26:05;;;;;;;4.38;3.97;;;24.70;59.10;;;;;;5073356;28;20208;-60
2021/07/02 11:28:40;;;;;;;6.00;3.60;;;24.80;59.90;;;;;;5072786;28;20272;-61
2021/07/02 11:31:09;;;;;;;4.85;3.67;;;25.00;57.70;;;;;;5073147;28;20204;-60
2021/07/02 11:33:37;;;;;;;6.35;3.72;;;25.20;56.30;;;;;;5073315;28;20209;-60
2021/07/02 11:36:12;;;;;;;7.18;4.38;;;25.40;57.20;;;;;;5072543;28;20311;-60
2021/07/02 11:38:53;;;;;;;5.47;4.00;;;25.40;57.30;;;;;;5072976;28;20219;-59
2021/07/02 11:41:22;;;;;;;6.65;4.28;;;25.60;58.30;;;;;;5072782;28;20255;-59
2021/07/02 11:43:51;;;;;;;6.05;4.05;;;25.80;57.90;;;;;;5072279;28;20211;-60
2021/07/02 11:46:19;;;;;;;4.47;3.75;;;26.20;58.50;;;;;;5072402;28;20220;-60
2021/07/02 11:48:47;;;;;;;5.07;4.00;;;26.30;57.30;;;;;;5072654;28;20205;-60
2021/07/02 11:51:17;;;;;;;4.97;4.00;;;26.30;57.90;;;;;;5072644;28;20223;-60
2021/07/02 11:53:46;;;;;;;5.68;4.38;;;26.30;58.90;;;;;;5072720;28;20209;-63
2021/07/02 11:56:17;;;;;;;5.32;4.35;;;26.60;59.30;;;;;;5072540;28;20299;-60
2021/07/02 11:58:45;;;;;;;5.47;4.18;;;26.30;57.90;;;;;;5072393;28;20375;-59
2021/07/02 12:01:16;;;;;;;5.78;4.40;;;25.90;58.50;;;;;;5072514;28;20254;-60
2021/07/02 12:03:48;;;;;;;7.25;4.22;;;25.60;58.30;;;;;;5072326;28;20612;-60
2021/07/02 12:06:25;;;;;;;4.28;3.55;;;25.70;59.40;;;;;;5072416;28;20223;-61
2021/07/02 12:08:54;;;;;;;4.97;3.33;;;25.80;55.80;;;;;;5072096;28;20200;-60
2021/07/02 12:11:36;;;;;;;5.25;3.70;;;25.90;55.00;;;;;;5072105;28;20234;-60
2021/07/02 12:14:03;;;;;;;4.43;4.00;;;26.10;56.50;;;;;;5071420;28;20208;-60
2021/07/02 12:16:34;;;;;;;5.72;3.88;;;26.20;55.30;;;;;;5071815;28;20607;-60
2021/07/02 12:19:01;;;;;;;6.97;4.50;;;26.30;56.50;;;;;;5072018;28;20227;-60
2021/07/02 12:21:31;;;;;;;5.07;4.03;;;26.40;56.60;;;;;;5071890;28;20212;-61
2021/07/02 12:24:01;;;;;;;5.07;3.88;;;26.60;55.50;;;;;;5071871;28;20237;-60
2021/07/02 12:26:29;;;;;;;4.68;4.03;;;26.50;55.80;;;;;;5072039;28;20205;-60
2021/07/02 12:29:14;;;;;;;6.32;3.83;;;26.60;55.90;;;;;;5071953;28;20201;-60
2021/07/02 12:31:45;;;;;;;5.18;4.00;;;26.70;56.00;;;;;;5071982;28;20224;-60
2021/07/02 12:34:16;;;;;;;5.60;3.97;;;26.70;56.40;;;;;;5071741;28;20212;-60
2021/07/02 12:36:58;;;;;;;6.10;3.78;;;26.50;56.00;;;;;;5072376;28;20228;-61
2021/07/02 12:39:30;;;;;;;4.55;4.15;;;26.50;56.40;;;;;;5071976;28;20217;-60
2021/07/02 12:41:58;;;;;;;5.40;4.15;;;26.70;56.90;;;;;;5071883;28;20212;-60
2021/07/02 12:44:30;;;;;;;5.80;3.95;;;27.00;56.00;;;;;;5071844;28;20215;-61
2021/07/02 12:46:59;;;;;;;3.85;3.45;;;27.20;55.20;;;;;;5072247;28;20228;-60
2021/07/02 12:49:28;;;;;;;5.63;3.80;;;27.30;54.40;;;;;;5072232;28;20209;-60
2021/07/02 12:52:01;;;;;;;4.35;3.95;;;27.30;54.70;;;;;;5071858;28;20281;-60
2021/07/02 12:57:20;;;;;;;4.95;3.70;;;27.30;55.50;;;;;;5071366;28;20362;-60
2021/07/02 12:59:47;;;;;;;6.90;4.10;;;27.30;54.40;;;;;;5071469;28;20212;-61
2021/07/02 13:02:24;;;;;;;4.35;3.40;;;27.30;54.40;;;;;;5071522;28;20333;-60